ADDS METAR Data INFO
IDs: Format: Raw Decoded Include TAF

Data at: 0103 UTC 24 Jun 2018

PANC 240053Z 26007KT 10SM FEW045 FEW140 SCT200 15/07 A3003 RMK AO2 SLP171 T01500072
PANC 232353Z 22006KT 10SM FEW045 SCT140 BKN200 15/06 A3004 RMK AO2 SLP174 T01500061 10156 20111 58013
PANC 232253Z 24006KT 10SM FEW030 BKN048 BKN140 14/06 A3006 RMK AO2 SLP180 T01440056
PANC 232153Z VRB05KT 10SM FEW030 BKN048 BKN140 14/06 A3007 RMK AO2 SLP184 T01390056
PANC 232053Z 19007KT 10SM SCT030 BKN050 BKN140 13/06 A3008 RMK AO2 SLP188 T01330056 58011
PANC 231953Z VRB05KT 10SM SCT030 BKN050 BKN140 13/07 A3010 RMK AO2 SLP194 T01280067
PANC 231853Z 23007KT 10SM SCT030 BKN045 OVC140 12/07 A3011 RMK AO2 SLP196 T01170067
PANC 231753Z 22007KT 10SM SCT030 BKN055 OVC140 11/07 A3011 RMK AO2 SLP198 60000 T01110067 10111 20100 58005
PANC 231653Z 22006KT 10SM FEW030 BKN055 OVC140 11/07 A3012 RMK AO2 SLP201 T01060067
PANC 231553Z 22005KT 10SM SCT030 BKN055 OVC140 11/07 A3012 RMK AO2 SLP202 T01060067
PANC 231453Z 20004KT 10SM SCT029 BKN055 OVC130 10/07 A3013 RMK AO2 SLP204 60000 T01000067 56006
PANC 231353Z 20004KT 10SM FEW035 BKN060 BKN130 10/07 A3013 RMK AO2 SLP204 T01000067
PANC 231253Z 20004KT 10SM BKN043 OVC050 10/07 A3014 RMK AO2 RAB39E52 SLP207 P0000 T01000072
PANC 231203Z 18005KT 10SM BKN030 OVC039 11/08 A3015 RMK AO2 T01060078
PANC 231153Z 18005KT 10SM BKN028 OVC038 11/07 A3015 RMK AO2 SLP209 T01060067 10117 20106 53003
PANC 231053Z 20005KT 10SM BKN037 OVC060 11/06 A3014 RMK AO2 SLP207 T01110061
PANC 230953Z 21004KT 10SM OVC035 11/07 A3014 RMK AO2 SLP207 T01060072
PANC 230853Z VRB04KT 10SM OVC032 11/08 A3014 RMK AO2 SLP206 T01110078 401440106 53007
PANC 230753Z 20004KT 10SM FEW005 SCT028 BKN060 BKN200 11/09 A3013 RMK AO2 SLP203 VIRGA NW T01110089
PANC 230653Z 19005KT 10SM FEW005 SCT028 BKN060 BKN200 12/09 A3012 RMK AO2 SLP200 VIRGA NW T01170094
PANC 230553Z 19005KT 10SM FEW005 SCT028 BKN065 BKN200 12/10 A3012 RMK AO2 SLP199 60000 T01170100 10144 20117 51002
PANC 230453Z 21009KT 10SM FEW023 BKN075 BKN200 12/09 A3011 RMK AO2 SLP197 T01170094
PANC 230353Z 25007KT 10SM FEW023 BKN070 BKN200 12/09 A3011 RMK AO2 RAE15 SLP198 P0000 T01220089
PANC 230253Z 24004KT 10SM -RA FEW023 BKN060 BKN200 13/08 A3011 RMK AO2 RAB38 SLP196 P0000 60000 T01280083 51003
PANC 230153Z 28006KT 10SM FEW023 BKN060 BKN200 13/08 A3011 RMK AO2 SLP196 T01280083
PANC 230053Z 26007KT 10SM FEW014 SCT023 BKN060 BKN200 13/08 A3010 RMK AO2 SLP195 T01280083
PANC 222353Z 28006KT 10SM FEW014 SCT023 BKN075 BKN160 13/08 A3010 RMK AO2 SLP193 60000 T01280083 10139 20117 53005
PANC 222253Z 29009KT 10SM FEW014 BKN023 BKN090 BKN160 13/08 A3010 RMK AO2 SLP192 T01330083
PANC 222153Z 26009KT 10SM FEW011 BKN022 BKN055 BKN160 13/09 A3009 RMK AO2 SLP189 T01330089
PANC 222053Z 28009KT 10SM SCT009 BKN019 OVC060 12/09 A3008 RMK AO2 RAE15B40E50 SLP188 P0000 60000 T01220089 53015
PANC 222033Z 27009KT 10SM SCT009 BKN019 OVC060 12/09 A3008 RMK AO2 RAE15 P0000 T01170089
PANC 222026Z 27009KT 10SM BKN011 BKN019 OVC060 12/09 A3007 RMK AO2 RAE15 P0000 T01170089
PANC 222016Z 25010KT 10SM SCT009 BKN017 OVC060 12/09 A3007 RMK AO2 RAE15 CIG 009 N P0000 T01170089
PANC 221953Z 24008KT 10SM -RA SCT007 BKN012 OVC060 12/09 A3007 RMK AO2 RAB34 SLP183 P0000 T01170094
PANC 221853Z 23008KT 10SM SCT007 BKN015 OVC065 12/10 A3005 RMK AO2 RAE16 SLP177 P0000 T01220100
PANC 221834Z 24008KT 10SM SCT007 BKN015 OVC065 12/10 A3005 RMK AO2 RAE16 P0000 T01170100
PANC 221800Z 25008KT 10SM -RA BKN007 BKN013 OVC065 12/10 A3004 RMK AO2 P0000 T01170100
PANC 221753Z 25008KT 10SM -RA SCT007 BKN015 BKN060 12/09 A3004 RMK AO2 RAB1654E1657B20 SLP173 P0000 60000 T01170094 10128 20111 51023
PANC 221653Z 24008KT 10SM FEW007 SCT014 BKN060 12/10 A3003 RMK AO2 RAB24E28 SLP169 P0000 T01170100
PANC 221625Z 23007KT 10SM -RA FEW007 SCT014 BKN060 12/10 A3002 RMK AO2 RAB24 P0000 T01170100
PANC 221553Z 22008KT 10SM FEW010 SCT070 BKN090 BKN130 12/10 A3000 RMK AO2 SLP160 T01220100
PANC 221453Z 23009KT 10SM FEW012 SCT070 BKN090 BKN130 12/10 A2997 RMK AO2 SLP150 T01220100 53015
PANC 221353Z 16011KT 10SM BKN065 BKN110 12/09 A2995 RMK AO2 SLP143 T01220089